sensor_id;sensor_type;location;lat;lon;timestamp;pressure;altitude;pressure_sealevel;temperature
20092;BMP180;10205;49.678;6.560;2022-12-07T00:01:10;100157.00;;;8.80
20092;BMP180;10205;49.678;6.560;2022-12-07T00:03:39;100161.00;;;8.70
20092;BMP180;10205;49.678;6.560;2022-12-07T00:06:09;100172.00;;;8.70
20092;BMP180;10205;49.678;6.560;2022-12-07T00:08:37;100159.00;;;8.70
20092;BMP180;10205;49.678;6.560;2022-12-07T00:11:07;100170.00;;;8.70
20092;BMP180;10205;49.678;6.560;2022-12-07T00:13:36;100167.00;;;8.70
20092;BMP180;10205;49.678;6.560;2022-12-07T00:16:08;100165.00;;;8.70
20092;BMP180;10205;49.678;6.560;2022-12-07T00:18:36;100156.00;;;8.70
20092;BMP180;10205;49.678;6.560;2022-12-07T00:21:07;100156.00;;;8.70
20092;BMP180;10205;49.678;6.560;2022-12-07T00:23:36;100149.00;;;8.80
20092;BMP180;10205;49.678;6.560;2022-12-07T00:26:05;100151.00;;;8.80
20092;BMP180;10205;49.678;6.560;2022-12-07T00:28:32;100153.00;;;8.70
20092;BMP180;10205;49.678;6.560;2022-12-07T00:31:03;100144.00;;;8.70
20092;BMP180;10205;49.678;6.560;2022-12-07T00:33:33;100144.00;;;8.80
20092;BMP180;10205;49.678;6.560;2022-12-07T00:36:02;100143.00;;;8.80
20092;BMP180;10205;49.678;6.560;2022-12-07T00:38:32;100138.00;;;8.70
20092;BMP180;10205;49.678;6.560;2022-12-07T00:41:03;100132.00;;;8.70
20092;BMP180;10205;49.678;6.560;2022-12-07T00:43:32;100130.00;;;8.70
20092;BMP180;10205;49.678;6.560;2022-12-07T00:45:59;100131.00;;;8.70
20092;BMP180;10205;49.678;6.560;2022-12-07T00:48:26;100132.00;;;8.70
20092;BMP180;10205;49.678;6.560;2022-12-07T00:50:55;100121.00;;;8.70
20092;BMP180;10205;49.678;6.560;2022-12-07T00:53:26;100116.00;;;8.70
20092;BMP180;10205;49.678;6.560;2022-12-07T00:55:53;100117.00;;;8.70
20092;BMP180;10205;49.678;6.560;2022-12-07T00:58:21;100126.00;;;8.70
20092;BMP180;10205;49.678;6.560;2022-12-07T01:00:49;100131.00;;;8.70
20092;BMP180;10205;49.678;6.560;2022-12-07T01:03:17;100109.00;;;8.60
20092;BMP180;10205;49.678;6.560;2022-12-07T01:05:52;100116.00;;;8.60
20092;BMP180;10205;49.678;6.560;2022-12-07T01:08:21;100121.00;;;8.60
20092;BMP180;10205;49.678;6.560;2022-12-07T01:10:57;100110.00;;;8.60
20092;BMP180;10205;49.678;6.560;2022-12-07T01:13:25;100097.00;;;8.60
20092;BMP180;10205;49.678;6.560;2022-12-07T01:15:58;100106.00;;;8.60
20092;BMP180;10205;49.678;6.560;2022-12-07T01:18:26;100113.00;;;8.60
20092;BMP180;10205;49.678;6.560;2022-12-07T01:21:04;100114.00;;;8.60
20092;BMP180;10205;49.678;6.560;2022-12-07T01:23:34;100111.00;;;8.60
20092;BMP180;10205;49.678;6.560;2022-12-07T01:26:05;100108.00;;;8.60
20092;BMP180;10205;49.678;6.560;2022-12-07T01:28:34;100107.00;;;8.60
20092;BMP180;10205;49.678;6.560;2022-12-07T01:31:04;100118.00;;;8.60
20092;BMP180;10205;49.678;6.560;2022-12-07T01:33:34;100118.00;;;8.60
20092;BMP180;10205;49.678;6.560;2022-12-07T01:36:03;100129.00;;;8.60
20092;BMP180;10205;49.678;6.560;2022-12-07T01:38:32;100129.00;;;8.60
20092;BMP180;10205;49.678;6.560;2022-12-07T01:41:01;100134.00;;;8.60
20092;BMP180;10205;49.678;6.560;2022-12-07T01:43:31;100130.00;;;8.50
20092;BMP180;10205;49.678;6.560;2022-12-07T01:46:03;100126.00;;;8.60
20092;BMP180;10205;49.678;6.560;2022-12-07T01:48:34;100124.00;;;8.60
20092;BMP180;10205;49.678;6.560;2022-12-07T01:51:08;100112.00;;;8.60
20092;BMP180;10205;49.678;6.560;2022-12-07T01:53:43;100122.00;;;8.50
20092;BMP180;10205;49.678;6.560;2022-12-07T01:56:23;100118.00;;;8.60
20092;BMP180;10205;49.678;6.560;2022-12-07T01:58:52;100119.00;;;8.60
20092;BMP180;10205;49.678;6.560;2022-12-07T02:01:21;100119.00;;;8.60
20092;BMP180;10205;49.678;6.560;2022-12-07T02:03:49;100120.00;;;8.50
20092;BMP180;10205;49.678;6.560;2022-12-07T02:06:21;100113.00;;;8.60
20092;BMP180;10205;49.678;6.560;2022-12-07T02:08:51;100116.00;;;8.50
20092;BMP180;10205;49.678;6.560;2022-12-07T02:11:19;100114.00;;;8.60
20092;BMP180;10205;49.678;6.560;2022-12-07T02:13:48;100111.00;;;8.60
20092;BMP180;10205;49.678;6.560;2022-12-07T02:16:32;100106.00;;;8.60
20092;BMP180;10205;49.678;6.560;2022-12-07T02:19:56;100103.00;;;8.60
20092;BMP180;10205;49.678;6.560;2022-12-07T02:25:53;100108.00;;;8.50
20092;BMP180;10205;49.678;6.560;2022-12-07T02:28:29;100099.00;;;8.50
20092;BMP180;10205;49.678;6.560;2022-12-07T02:31:06;100109.00;;;8.50
20092;BMP180;10205;49.678;6.560;2022-12-07T02:33:41;100098.00;;;8.50
20092;BMP180;10205;49.678;6.560;2022-12-07T02:36:17;100087.00;;;8.50
20092;BMP180;10205;49.678;6.560;2022-12-07T02:38:53;100097.00;;;8.50
20092;BMP180;10205;49.678;6.560;2022-12-07T02:41:27;100095.00;;;8.50
20092;BMP180;10205;49.678;6.560;2022-12-07T02:44:00;100095.00;;;8.50
20092;BMP180;10205;49.678;6.560;2022-12-07T02:46:34;100105.00;;;8.50
20092;BMP180;10205;49.678;6.560;2022-12-07T02:49:04;100087.00;;;8.40
20092;BMP180;10205;49.678;6.560;2022-12-07T02:51:33;100091.00;;;8.40
20092;BMP180;10205;49.678;6.560;2022-12-07T02:54:01;100095.00;;;8.40
20092;BMP180;10205;49.678;6.560;2022-12-07T02:56:47;100096.00;;;8.40
20092;BMP180;10205;49.678;6.560;2022-12-07T02:59:25;100089.00;;;8.40
20092;BMP180;10205;49.678;6.560;2022-12-07T03:02:11;100094.00;;;8.40
20092;BMP180;10205;49.678;6.560;2022-12-07T03:04:50;100094.00;;;8.40
20092;BMP180;10205;49.678;6.560;2022-12-07T03:07:35;100082.00;;;8.40
20092;BMP180;10205;49.678;6.560;2022-12-07T03:10:14;100086.00;;;8.40
20092;BMP180;10205;49.678;6.560;2022-12-07T03:12:53;100079.00;;;8.40
20092;BMP180;10205;49.678;6.560;2022-12-07T03:15:30;100076.00;;;8.40
20092;BMP180;10205;49.678;6.560;2022-12-07T03:18:02;100068.00;;;8.40
20092;BMP180;10205;49.678;6.560;2022-12-07T03:20:35;100078.00;;;8.40
20092;BMP180;10205;49.678;6.560;2022-12-07T03:23:08;100065.00;;;8.40
20092;BMP180;10205;49.678;6.560;2022-12-07T03:25:41;100064.00;;;8.40
20092;BMP180;10205;49.678;6.560;2022-12-07T03:28:12;100073.00;;;8.40
20092;BMP180;10205;49.678;6.560;2022-12-07T03:30:46;100077.00;;;8.40
20092;BMP180;10205;49.678;6.560;2022-12-07T03:33:22;100073.00;;;8.40
20092;BMP180;10205;49.678;6.560;2022-12-07T03:36:04;100070.00;;;8.40
20092;BMP180;10205;49.678;6.560;2022-12-07T03:38:40;100061.00;;;8.40
20092;BMP180;10205;49.678;6.560;2022-12-07T03:41:12;100064.00;;;8.40
20092;BMP180;10205;49.678;6.560;2022-12-07T03:43:42;100064.00;;;8.40
20092;BMP180;10205;49.678;6.560;2022-12-07T03:46:20;100064.00;;;8.40
20092;BMP180;10205;49.678;6.560;2022-12-07T03:48:59;100069.00;;;8.40
20092;BMP180;10205;49.678;6.560;2022-12-07T03:51:38;100064.00;;;8.40
20092;BMP180;10205;49.678;6.560;2022-12-07T03:54:12;100065.00;;;8.40
20092;BMP180;10205;49.678;6.560;2022-12-07T03:56:43;100060.00;;;8.40
20092;BMP180;10205;49.678;6.560;2022-12-07T03:59:14;100059.00;;;8.40
20092;BMP180;10205;49.678;6.560;2022-12-07T04:01:43;100067.00;;;8.30
20092;BMP180;10205;49.678;6.560;2022-12-07T04:04:12;100061.00;;;8.30
20092;BMP180;10205;49.678;6.560;2022-12-07T04:06:39;100069.00;;;8.30
20092;BMP180;10205;49.678;6.560;2022-12-07T04:09:07;100070.00;;;8.30
20092;BMP180;10205;49.678;6.560;2022-12-07T04:11:34;100054.00;;;8.30
20092;BMP180;10205;49.678;6.560;2022-12-07T04:14:01;100075.00;;;8.30
20092;BMP180;10205;49.678;6.560;2022-12-07T04:16:48;100060.00;;;8.30
20092;BMP180;10205;49.678;6.560;2022-12-07T04:19:19;100055.00;;;8.30
20092;BMP180;10205;49.678;6.560;2022-12-07T04:21:48;100045.00;;;8.30
20092;BMP180;10205;49.678;6.560;2022-12-07T04:24:15;100047.00;;;8.30
20092;BMP180;10205;49.678;6.560;2022-12-07T04:26:45;100053.00;;;8.30
20092;BMP180;10205;49.678;6.560;2022-12-07T04:29:13;100055.00;;;8.40
20092;BMP180;10205;49.678;6.560;2022-12-07T04:31:42;100049.00;;;8.40
20092;BMP180;10205;49.678;6.560;2022-12-07T04:34:10;100052.00;;;8.40
20092;BMP180;10205;49.678;6.560;2022-12-07T04:36:40;100044.00;;;8.40
20092;BMP180;10205;49.678;6.560;2022-12-07T04:39:17;100053.00;;;8.40
20092;BMP180;10205;49.678;6.560;2022-12-07T04:41:44;100045.00;;;8.40
20092;BMP180;10205;49.678;6.560;2022-12-07T04:44:13;100039.00;;;8.40
20092;BMP180;10205;49.678;6.560;2022-12-07T04:46:44;100041.00;;;8.40
20092;BMP180;10205;49.678;6.560;2022-12-07T04:49:13;100035.00;;;8.40
20092;BMP180;10205;49.678;6.560;2022-12-07T04:51:43;100037.00;;;8.40
20092;BMP180;10205;49.678;6.560;2022-12-07T04:54:12;100041.00;;;8.40
20092;BMP180;10205;49.678;6.560;2022-12-07T04:56:39;100037.00;;;8.40
20092;BMP180;10205;49.678;6.560;2022-12-07T04:59:07;100036.00;;;8.40
20092;BMP180;10205;49.678;6.560;2022-12-07T05:01:35;100029.00;;;8.40
20092;BMP180;10205;49.678;6.560;2022-12-07T05:04:02;100043.00;;;8.40
20092;BMP180;10205;49.678;6.560;2022-12-07T05:06:30;100040.00;;;8.40
20092;BMP180;10205;49.678;6.560;2022-12-07T05:08:58;100031.00;;;8.40
20092;BMP180;10205;49.678;6.560;2022-12-07T05:11:26;100032.00;;;8.40
20092;BMP180;10205;49.678;6.560;2022-12-07T05:14:10;100049.00;;;8.40
20092;BMP180;10205;49.678;6.560;2022-12-07T05:16:39;100029.00;;;8.40
20092;BMP180;10205;49.678;6.560;2022-12-07T05:19:07;100043.00;;;8.40
20092;BMP180;10205;49.678;6.560;2022-12-07T05:21:35;100037.00;;;8.40
20092;BMP180;10205;49.678;6.560;2022-12-07T05:24:05;100032.00;;;8.40
20092;BMP180;10205;49.678;6.560;2022-12-07T05:26:33;100041.00;;;8.40
20092;BMP180;10205;49.678;6.560;2022-12-07T05:29:00;100043.00;;;8.40
20092;BMP180;10205;49.678;6.560;2022-12-07T05:31:27;100045.00;;;8.40
20092;BMP180;10205;49.678;6.560;2022-12-07T05:33:55;100032.00;;;8.40
20092;BMP180;10205;49.678;6.560;2022-12-07T05:36:23;100037.00;;;8.40
20092;BMP180;10205;49.678;6.560;2022-12-07T05:38:50;100041.00;;;8.40
20092;BMP180;10205;49.678;6.560;2022-12-07T05:41:20;100023.00;;;8.40
20092;BMP180;10205;49.678;6.560;2022-12-07T05:44:05;100021.00;;;8.40
20092;BMP180;10205;49.678;6.560;2022-12-07T05:46:33;100026.00;;;8.40
20092;BMP180;10205;49.678;6.560;2022-12-07T05:49:00;100026.00;;;8.40
20092;BMP180;10205;49.678;6.560;2022-12-07T05:51:28;100031.00;;;8.40
20092;BMP180;10205;49.678;6.560;2022-12-07T05:53:55;100032.00;;;8.40
20092;BMP180;10205;49.678;6.560;2022-12-07T05:56:24;100028.00;;;8.40
20092;BMP180;10205;49.678;6.560;2022-12-07T05:58:52;100034.00;;;8.40
20092;BMP180;10205;49.678;6.560;2022-12-07T06:01:36;100037.00;;;8.40
20092;BMP180;10205;49.678;6.560;2022-12-07T06:04:04;100039.00;;;8.40
20092;BMP180;10205;49.678;6.560;2022-12-07T06:06:31;100038.00;;;8.40
20092;BMP180;10205;49.678;6.560;2022-12-07T06:08:58;100058.00;;;8.40
20092;BMP180;10205;49.678;6.560;2022-12-07T06:11:27;100043.00;;;8.40
20092;BMP180;10205;49.678;6.560;2022-12-07T06:14:12;100044.00;;;8.40
20092;BMP180;10205;49.678;6.560;2022-12-07T06:16:40;100045.00;;;8.40
20092;BMP180;10205;49.678;6.560;2022-12-07T06:19:08;100029.00;;;8.50
20092;BMP180;10205;49.678;6.560;2022-12-07T06:21:35;100034.00;;;8.50
20092;BMP180;10205;49.678;6.560;2022-12-07T06:24:03;100036.00;;;8.50
20092;BMP180;10205;49.678;6.560;2022-12-07T06:26:36;100027.00;;;8.50
20092;BMP180;10205;49.678;6.560;2022-12-07T06:29:06;100017.00;;;8.50
20092;BMP180;10205;49.678;6.560;2022-12-07T06:31:33;100025.00;;;8.50
20092;BMP180;10205;49.678;6.560;2022-12-07T06:34:04;100023.00;;;8.50
20092;BMP180;10205;49.678;6.560;2022-12-07T06:36:33;100030.00;;;8.50
20092;BMP180;10205;49.678;6.560;2022-12-07T06:39:00;100041.00;;;8.50
20092;BMP180;10205;49.678;6.560;2022-12-07T06:41:27;100026.00;;;8.50
20092;BMP180;10205;49.678;6.560;2022-12-07T06:43:56;100032.00;;;8.50
20092;BMP180;10205;49.678;6.560;2022-12-07T06:46:24;100036.00;;;8.50
20092;BMP180;10205;49.678;6.560;2022-12-07T06:48:51;100033.00;;;8.50
20092;BMP180;10205;49.678;6.560;2022-12-07T06:51:19;100036.00;;;8.50
20092;BMP180;10205;49.678;6.560;2022-12-07T06:53:46;100038.00;;;8.50
20092;BMP180;10205;49.678;6.560;2022-12-07T06:56:14;100040.00;;;8.50
20092;BMP180;10205;49.678;6.560;2022-12-07T06:58:41;100034.00;;;8.50
20092;BMP180;10205;49.678;6.560;2022-12-07T07:01:12;100032.00;;;8.50
20092;BMP180;10205;49.678;6.560;2022-12-07T07:03:39;100026.00;;;8.50
20092;BMP180;10205;49.678;6.560;2022-12-07T07:06:07;100033.00;;;8.50
20092;BMP180;10205;49.678;6.560;2022-12-07T07:08:36;100029.00;;;8.50
20092;BMP180;10205;49.678;6.560;2022-12-07T07:11:04;100039.00;;;8.50
20092;BMP180;10205;49.678;6.560;2022-12-07T07:13:31;100038.00;;;8.50
20092;BMP180;10205;49.678;6.560;2022-12-07T07:15:59;100030.00;;;8.50
20092;BMP180;10205;49.678;6.560;2022-12-07T07:18:28;100059.00;;;8.50
20092;BMP180;10205;49.678;6.560;2022-12-07T07:20:56;100041.00;;;8.50
20092;BMP180;10205;49.678;6.560;2022-12-07T07:23:24;100038.00;;;8.50
20092;BMP180;10205;49.678;6.560;2022-12-07T07:25:51;100064.00;;;8.50
20092;BMP180;10205;49.678;6.560;2022-12-07T07:28:18;100053.00;;;8.50
20092;BMP180;10205;49.678;6.560;2022-12-07T07:30:45;100048.00;;;8.50
20092;BMP180;10205;49.678;6.560;2022-12-07T07:33:13;100045.00;;;8.50
20092;BMP180;10205;49.678;6.560;2022-12-07T07:35:42;100056.00;;;8.50
20092;BMP180;10205;49.678;6.560;2022-12-07T07:38:09;100066.00;;;8.50
20092;BMP180;10205;49.678;6.560;2022-12-07T07:40:37;100060.00;;;8.50
20092;BMP180;10205;49.678;6.560;2022-12-07T07:43:04;100062.00;;;8.50
20092;BMP180;10205;49.678;6.560;2022-12-07T07:45:33;100066.00;;;8.50
20092;BMP180;10205;49.678;6.560;2022-12-07T07:48:00;100056.00;;;8.50
20092;BMP180;10205;49.678;6.560;2022-12-07T07:50:27;100080.00;;;8.50
20092;BMP180;10205;49.678;6.560;2022-12-07T07:52:57;100079.00;;;8.50
20092;BMP180;10205;49.678;6.560;2022-12-07T07:55:24;100076.00;;;8.50
20092;BMP180;10205;49.678;6.560;2022-12-07T07:57:51;100092.00;;;8.60
20092;BMP180;10205;49.678;6.560;2022-12-07T08:00:19;100086.00;;;8.50
20092;BMP180;10205;49.678;6.560;2022-12-07T08:02:46;100083.00;;;8.60
20092;BMP180;10205;49.678;6.560;2022-12-07T08:05:14;100081.00;;;8.60
20092;BMP180;10205;49.678;6.560;2022-12-07T08:07:41;100082.00;;;8.60
20092;BMP180;10205;49.678;6.560;2022-12-07T08:10:12;100090.00;;;8.60
20092;BMP180;10205;49.678;6.560;2022-12-07T08:12:42;100099.00;;;8.60
20092;BMP180;10205;49.678;6.560;2022-12-07T08:15:25;100097.00;;;8.60
20092;BMP180;10205;49.678;6.560;2022-12-07T08:17:53;100102.00;;;8.60
20092;BMP180;10205;49.678;6.560;2022-12-07T08:20:21;100093.00;;;8.60
20092;BMP180;10205;49.678;6.560;2022-12-07T08:22:48;100092.00;;;8.60
20092;BMP180;10205;49.678;6.560;2022-12-07T08:25:17;100093.00;;;8.60
20092;BMP180;10205;49.678;6.560;2022-12-07T08:27:44;100086.00;;;8.60
20092;BMP180;10205;49.678;6.560;2022-12-07T08:30:11;100101.00;;;8.60
20092;BMP180;10205;49.678;6.560;2022-12-07T08:32:39;100103.00;;;8.60
20092;BMP180;10205;49.678;6.560;2022-12-07T08:35:08;100107.00;;;8.60
20092;BMP180;10205;49.678;6.560;2022-12-07T08:37:35;100108.00;;;8.60
20092;BMP180;10205;49.678;6.560;2022-12-07T08:40:04;100113.00;;;8.60
20092;BMP180;10205;49.678;6.560;2022-12-07T08:42:34;100102.00;;;8.60
20092;BMP180;10205;49.678;6.560;2022-12-07T08:45:08;100108.00;;;8.60
20092;BMP180;10205;49.678;6.560;2022-12-07T08:47:37;100095.00;;;8.60
20092;BMP180;10205;49.678;6.560;2022-12-07T08:50:08;100095.00;;;8.60
20092;BMP180;10205;49.678;6.560;2022-12-07T08:52:38;100097.00;;;8.60
20092;BMP180;10205;49.678;6.560;2022-12-07T08:55:09;100090.00;;;8.60
20092;BMP180;10205;49.678;6.560;2022-12-07T08:57:39;100086.00;;;8.60
20092;BMP180;10205;49.678;6.560;2022-12-07T09:00:07;100092.00;;;8.60
20092;BMP180;10205;49.678;6.560;2022-12-07T09:02:35;100086.00;;;8.60
20092;BMP180;10205;49.678;6.560;2022-12-07T09:05:03;100089.00;;;8.60
20092;BMP180;10205;49.678;6.560;2022-12-07T09:07:32;100087.00;;;8.60
20092;BMP180;10205;49.678;6.560;2022-12-07T09:10:00;100093.00;;;8.60
20092;BMP180;10205;49.678;6.560;2022-12-07T09:12:27;100096.00;;;8.60
20092;BMP180;10205;49.678;6.560;2022-12-07T09:14:56;100102.00;;;8.60
20092;BMP180;10205;49.678;6.560;2022-12-07T09:17:23;100101.00;;;8.60
20092;BMP180;10205;49.678;6.560;2022-12-07T09:19:50;100104.00;;;8.60
20092;BMP180;10205;49.678;6.560;2022-12-07T09:22:17;100105.00;;;8.70
20092;BMP180;10205;49.678;6.560;2022-12-07T09:24:45;100105.00;;;8.70
20092;BMP180;10205;49.678;6.560;2022-12-07T09:27:12;100110.00;;;8.70
20092;BMP180;10205;49.678;6.560;2022-12-07T09:29:39;100103.00;;;8.70
20092;BMP180;10205;49.678;6.560;2022-12-07T09:32:08;100097.00;;;8.70
20092;BMP180;10205;49.678;6.560;2022-12-07T09:34:35;100091.00;;;8.70
20092;BMP180;10205;49.678;6.560;2022-12-07T09:37:04;100097.00;;;8.70
20092;BMP180;10205;49.678;6.560;2022-12-07T09:39:32;100096.00;;;8.70
20092;BMP180;10205;49.678;6.560;2022-12-07T09:42:03;100091.00;;;8.70
20092;BMP180;10205;49.678;6.560;2022-12-07T09:44:32;100090.00;;;8.70
20092;BMP180;10205;49.678;6.560;2022-12-07T09:46:59;100091.00;;;8.80
20092;BMP180;10205;49.678;6.560;2022-12-07T09:49:31;100073.00;;;8.80
20092;BMP180;10205;49.678;6.560;2022-12-07T09:52:17;100067.00;;;8.80
20092;BMP180;10205;49.678;6.560;2022-12-07T09:54:48;100075.00;;;8.80
20092;BMP180;10205;49.678;6.560;2022-12-07T09:57:25;100084.00;;;8.80
20092;BMP180;10205;49.678;6.560;2022-12-07T09:59:55;100076.00;;;8.80
20092;BMP180;10205;49.678;6.560;2022-12-07T10:02:34;100073.00;;;8.80
20092;BMP180;10205;49.678;6.560;2022-12-07T10:05:06;100057.00;;;8.80
20092;BMP180;10205;49.678;6.560;2022-12-07T10:07:37;100054.00;;;8.80
20092;BMP180;10205;49.678;6.560;2022-12-07T10:10:09;100056.00;;;8.90
20092;BMP180;10205;49.678;6.560;2022-12-07T10:12:55;100050.00;;;8.90
20092;BMP180;10205;49.678;6.560;2022-12-07T10:15:23;100050.00;;;8.90
20092;BMP180;10205;49.678;6.560;2022-12-07T10:17:52;100052.00;;;8.90
20092;BMP180;10205;49.678;6.560;2022-12-07T10:20:26;100046.00;;;8.90
20092;BMP180;10205;49.678;6.560;2022-12-07T10:23:01;100031.00;;;8.90
20092;BMP180;10205;49.678;6.560;2022-12-07T10:25:32;100041.00;;;9.00
20092;BMP180;10205;49.678;6.560;2022-12-07T10:28:18;100033.00;;;9.00
20092;BMP180;10205;49.678;6.560;2022-12-07T10:30:54;100021.00;;;9.00
20092;BMP180;10205;49.678;6.560;2022-12-07T10:33:38;100024.00;;;9.00
20092;BMP180;10205;49.678;6.560;2022-12-07T10:36:23;100033.00;;;9.10
20092;BMP180;10205;49.678;6.560;2022-12-07T10:38:59;100026.00;;;9.10
20092;BMP180;10205;49.678;6.560;2022-12-07T10:41:27;100027.00;;;9.10
20092;BMP180;10205;49.678;6.560;2022-12-07T10:43:56;100018.00;;;9.20
20092;BMP180;10205;49.678;6.560;2022-12-07T10:46:53;100012.00;;;9.20
20092;BMP180;10205;49.678;6.560;2022-12-07T10:50:10;100018.00;;;9.20
20092;BMP180;10205;49.678;6.560;2022-12-07T10:53:09;100023.00;;;9.20
20092;BMP180;10205;49.678;6.560;2022-12-07T10:56:01;100020.00;;;9.20
20092;BMP180;10205;49.678;6.560;2022-12-07T10:58:52;100031.00;;;9.20
20092;BMP180;10205;49.678;6.560;2022-12-07T11:01:27;100014.00;;;9.30
20092;BMP180;10205;49.678;6.560;2022-12-07T11:04:26;100010.00;;;9.30
20092;BMP180;10205;49.678;6.560;2022-12-07T11:07:03;99999.00;;;9.30
20092;BMP180;10205;49.678;6.560;2022-12-07T11:10:02;100005.00;;;9.30
20092;BMP180;10205;49.678;6.560;2022-12-07T11:12:57;100002.00;;;9.30
20092;BMP180;10205;49.678;6.560;2022-12-07T11:15:45;100002.00;;;9.30
20092;BMP180;10205;49.678;6.560;2022-12-07T11:18:22;99995.00;;;9.40
20092;BMP180;10205;49.678;6.560;2022-12-07T11:20:58;100008.00;;;9.40
20092;BMP180;10205;49.678;6.560;2022-12-07T11:23:41;99991.00;;;9.40
20092;BMP180;10205;49.678;6.560;2022-12-07T11:26:27;99996.00;;;9.40
20092;BMP180;10205;49.678;6.560;2022-12-07T11:29:24;99978.00;;;9.40
20092;BMP180;10205;49.678;6.560;2022-12-07T11:32:07;99973.00;;;9.40
20092;BMP180;10205;49.678;6.560;2022-12-07T11:34:52;99976.00;;;9.50
20092;BMP180;10205;49.678;6.560;2022-12-07T11:37:31;99978.00;;;9.50
20092;BMP180;10205;49.678;6.560;2022-12-07T11:40:03;99971.00;;;9.50
20092;BMP180;10205;49.678;6.560;2022-12-07T11:42:41;99971.00;;;9.50
20092;BMP180;10205;49.678;6.560;2022-12-07T11:45:16;99972.00;;;9.50
20092;BMP180;10205;49.678;6.560;2022-12-07T11:47:51;99966.00;;;9.50
20092;BMP180;10205;49.678;6.560;2022-12-07T11:50:32;99974.00;;;9.60
20092;BMP180;10205;49.678;6.560;2022-12-07T11:53:05;99964.00;;;9.60
20092;BMP180;10205;49.678;6.560;2022-12-07T11:55:47;99967.00;;;9.60
20092;BMP180;10205;49.678;6.560;2022-12-07T11:58:38;99976.00;;;9.60
20092;BMP180;10205;49.678;6.560;2022-12-07T12:01:18;99948.00;;;9.60
20092;BMP180;10205;49.678;6.560;2022-12-07T12:03:52;99964.00;;;9.60
20092;BMP180;10205;49.678;6.560;2022-12-07T12:06:21;99955.00;;;9.60
20092;BMP180;10205;49.678;6.560;2022-12-07T12:08:55;99949.00;;;9.70
20092;BMP180;10205;49.678;6.560;2022-12-07T12:11:48;99957.00;;;9.70
20092;BMP180;10205;49.678;6.560;2022-12-07T12:14:51;99961.00;;;9.70
20092;BMP180;10205;49.678;6.560;2022-12-07T12:17:49;99945.00;;;9.70
20092;BMP180;10205;49.678;6.560;2022-12-07T12:20:23;99948.00;;;9.70
20092;BMP180;10205;49.678;6.560;2022-12-07T12:22:59;99941.00;;;9.70
20092;BMP180;10205;49.678;6.560;2022-12-07T12:25:34;99943.00;;;9.80
20092;BMP180;10205;49.678;6.560;2022-12-07T12:28:03;99942.00;;;9.80
20092;BMP180;10205;49.678;6.560;2022-12-07T12:30:37;99938.00;;;9.80
20092;BMP180;10205;49.678;6.560;2022-12-07T12:33:14;99935.00;;;9.80
20092;BMP180;10205;49.678;6.560;2022-12-07T12:35:42;99944.00;;;9.80
20092;BMP180;10205;49.678;6.560;2022-12-07T12:38:32;99930.00;;;9.80
20092;BMP180;10205;49.678;6.560;2022-12-07T12:41:03;99934.00;;;9.80
20092;BMP180;10205;49.678;6.560;2022-12-07T12:43:50;99931.00;;;9.80
20092;BMP180;10205;49.678;6.560;2022-12-07T12:46:46;99929.00;;;9.80
20092;BMP180;10205;49.678;6.560;2022-12-07T12:52:52;99920.00;;;9.80
20092;BMP180;10205;49.678;6.560;2022-12-07T12:58:40;99911.00;;;9.90
20092;BMP180;10205;49.678;6.560;2022-12-07T13:01:46;99920.00;;;9.80
20092;BMP180;10205;49.678;6.560;2022-12-07T13:04:53;99933.00;;;9.90
20092;BMP180;10205;49.678;6.560;2022-12-07T13:07:57;99916.00;;;9.90
20092;BMP180;10205;49.678;6.560;2022-12-07T13:10:41;99915.00;;;9.90
20092;BMP180;10205;49.678;6.560;2022-12-07T13:13:32;99908.00;;;9.90
20092;BMP180;10205;49.678;6.560;2022-12-07T13:16:40;99909.00;;;9.90
20092;BMP180;10205;49.678;6.560;2022-12-07T13:19:58;99911.00;;;9.90
20092;BMP180;10205;49.678;6.560;2022-12-07T13:22:44;99922.00;;;9.90
20092;BMP180;10205;49.678;6.560;2022-12-07T13:25:29;99908.00;;;9.90
20092;BMP180;10205;49.678;6.560;2022-12-07T13:28:07;99912.00;;;9.90
20092;BMP180;10205;49.678;6.560;2022-12-07T13:30:46;99889.00;;;9.90
20092;BMP180;10205;49.678;6.560;2022-12-07T13:33:17;99894.00;;;9.90
20092;BMP180;10205;49.678;6.560;2022-12-07T13:35:47;99891.00;;;10.00
20092;BMP180;10205;49.678;6.560;2022-12-07T13:38:23;99880.00;;;10.00
20092;BMP180;10205;49.678;6.560;2022-12-07T13:41:14;99881.00;;;10.00
20092;BMP180;10205;49.678;6.560;2022-12-07T13:43:44;99880.00;;;10.00
20092;BMP180;10205;49.678;6.560;2022-12-07T13:46:12;99874.00;;;10.00
20092;BMP180;10205;49.678;6.560;2022-12-07T13:48:46;99877.00;;;10.00
20092;BMP180;10205;49.678;6.560;2022-12-07T13:51:22;99875.00;;;10.00
20092;BMP180;10205;49.678;6.560;2022-12-07T13:53:52;99871.00;;;10.00
20092;BMP180;10205;49.678;6.560;2022-12-07T13:56:27;99875.00;;;10.10
20092;BMP180;10205;49.678;6.560;2022-12-07T13:58:55;99856.00;;;10.10
20092;BMP180;10205;49.678;6.560;2022-12-07T14:01:23;99870.00;;;10.10
20092;BMP180;10205;49.678;6.560;2022-12-07T14:03:51;99866.00;;;10.10
20092;BMP180;10205;49.678;6.560;2022-12-07T14:06:26;99853.00;;;10.10
20092;BMP180;10205;49.678;6.560;2022-12-07T14:09:08;99851.00;;;10.10
20092;BMP180;10205;49.678;6.560;2022-12-07T14:11:36;99854.00;;;10.10
20092;BMP180;10205;49.678;6.560;2022-12-07T14:14:17;99849.00;;;10.10
20092;BMP180;10205;49.678;6.560;2022-12-07T14:17:00;99854.00;;;10.20
20092;BMP180;10205;49.678;6.560;2022-12-07T14:19:46;99852.00;;;10.20
20092;BMP180;10205;49.678;6.560;2022-12-07T14:22:25;99844.00;;;10.10
20092;BMP180;10205;49.678;6.560;2022-12-07T14:25:01;99847.00;;;10.20
20092;BMP180;10205;49.678;6.560;2022-12-07T14:27:33;99846.00;;;10.20
20092;BMP180;10205;49.678;6.560;2022-12-07T14:30:04;99852.00;;;10.20
20092;BMP180;10205;49.678;6.560;2022-12-07T14:32:35;99857.00;;;10.20
20092;BMP180;10205;49.678;6.560;2022-12-07T14:35:10;99861.00;;;10.20
20092;BMP180;10205;49.678;6.560;2022-12-07T14:37:41;99864.00;;;10.20
20092;BMP180;10205;49.678;6.560;2022-12-07T14:40:13;99847.00;;;10.20
20092;BMP180;10205;49.678;6.560;2022-12-07T14:42:43;99853.00;;;10.20
20092;BMP180;10205;49.678;6.560;2022-12-07T14:45:17;99846.00;;;10.20
20092;BMP180;10205;49.678;6.560;2022-12-07T14:47:45;99843.00;;;10.20
20092;BMP180;10205;49.678;6.560;2022-12-07T14:50:15;99846.00;;;10.20
20092;BMP180;10205;49.678;6.560;2022-12-07T14:52:50;99846.00;;;10.20
20092;BMP180;10205;49.678;6.560;2022-12-07T14:55:25;99850.00;;;10.20
20092;BMP180;10205;49.678;6.560;2022-12-07T14:57:52;99842.00;;;10.20